createdAt,value
2017-04-03T00:01:27.525Z,85.907
2017-04-03T00:04:21.379Z,86.361
2017-04-03T00:07:15.397Z,86.351
2017-04-03T00:10:09.359Z,86.728
2017-04-03T00:13:03.293Z,86.735
2017-04-03T00:15:57.267Z,87.321
2017-04-03T00:18:51.389Z,87.202
2017-04-03T00:21:45.373Z,87.107
2017-04-03T00:24:39.436Z,87.383
2017-04-03T00:27:33.546Z,87.055
2017-04-03T00:30:27.593Z,86.893
2017-04-03T00:33:21.562Z,86.735
2017-04-03T00:36:15.522Z,86.962
2017-04-03T00:39:09.523Z,86.974
2017-04-03T00:42:05.233Z,86.991
2017-04-03T00:44:57.584Z,87.097
2017-04-03T00:47:51.626Z,87.415
2017-04-03T00:50:45.581Z,87.403
2017-04-03T00:53:39.525Z,87.302
2017-04-03T00:56:33.431Z,87.552
2017-04-03T00:59:27.377Z,87.456
2017-04-03T01:02:21.340Z,87.627
2017-04-03T01:05:16.999Z,87.920
2017-04-03T01:08:09.110Z,87.458
2017-04-03T01:11:02.891Z,87.792
2017-04-03T01:13:56.650Z,88.098
2017-04-03T01:16:50.488Z,88.114
2017-04-03T01:19:44.079Z,88.244
2017-04-03T01:22:37.962Z,88.301
2017-04-03T01:25:31.829Z,88.534
2017-04-03T01:28:25.983Z,88.597
2017-04-03T01:31:20.147Z,88.862
2017-04-03T01:34:14.139Z,88.876
2017-04-03T01:37:08.028Z,88.581
2017-04-03T01:40:01.755Z,88.889
2017-04-03T01:42:55.540Z,88.898
2017-04-03T01:45:49.316Z,89.549
2017-04-03T01:48:43.115Z,89.170
2017-04-03T01:51:38.574Z,89.342
2017-04-03T01:54:32.529Z,89.460
2017-04-03T01:57:24.505Z,89.308
2017-04-03T02:00:18.382Z,89.216
2017-04-03T02:03:12.215Z,89.512
2017-04-03T02:06:05.951Z,89.688
2017-04-03T02:08:59.508Z,90.111
2017-04-03T02:11:53.403Z,90.341
2017-04-03T02:14:47.344Z,90.287
2017-04-03T02:17:43.086Z,90.182
2017-04-03T02:20:37.059Z,90.433
2017-04-03T02:23:29.483Z,90.233
2017-04-03T02:26:23.487Z,90.647
2017-04-03T02:29:17.511Z,90.946
2017-04-03T02:32:11.510Z,91.077
2017-04-03T02:35:05.515Z,91.290
2017-04-03T02:37:59.401Z,91.288
2017-04-03T02:40:55.076Z,91.637
2017-04-03T02:43:47.244Z,91.545
2017-04-03T02:46:41.305Z,91.476
2017-04-03T02:49:35.282Z,91.807
2017-04-03T02:52:29.332Z,91.596
2017-04-03T02:55:23.453Z,91.478
2017-04-03T02:58:17.604Z,91.670
2017-04-03T03:01:13.533Z,91.638
2017-04-03T03:04:05.857Z,92.035
2017-04-03T03:07:00.012Z,91.859
2017-04-03T03:09:55.817Z,91.861
2017-04-03T03:12:49.937Z,91.795
2017-04-03T03:15:42.386Z,91.577
2017-04-03T03:18:36.390Z,91.690
2017-04-03T03:21:30.525Z,92.068
2017-04-03T03:24:24.608Z,90.994
2017-04-03T03:27:18.762Z,91.529
2017-04-03T03:30:12.780Z,91.963
2017-04-03T03:33:06.904Z,90.680
2017-04-03T03:36:00.883Z,89.762
2017-04-03T03:38:56.736Z,91.303
2017-04-03T03:41:50.648Z,91.224
2017-04-03T03:44:44.722Z,89.666
2017-04-03T03:47:37.224Z,92.145
2017-04-03T03:50:31.232Z,91.057
2017-04-03T03:53:25.299Z,90.815
2017-04-03T03:59:13.338Z,91.375
2017-04-03T04:02:07.399Z,89.958
2017-04-03T04:05:01.498Z,90.879
2017-04-03T04:07:55.589Z,90.561
2017-04-03T04:10:49.664Z,89.082
2017-04-03T04:13:43.652Z,89.702
2017-04-03T04:16:39.320Z,85.830
2017-04-03T04:19:31.681Z,88.366
2017-04-03T04:22:27.279Z,88.278
2017-04-03T04:25:19.567Z,88.848
2017-04-03T04:28:13.549Z,87.875
2017-04-03T04:31:07.593Z,89.362
2017-04-03T04:34:01.612Z,89.806
2017-04-03T04:36:55.599Z,88.447
2017-04-03T04:39:49.595Z,88.937
2017-04-03T04:42:43.663Z,89.169
2017-04-03T04:45:37.588Z,88.902
2017-04-03T04:48:33.384Z,87.166
2017-04-03T04:51:25.640Z,88.728
2017-04-03T04:54:19.677Z,88.846
2017-04-03T04:57:13.755Z,88.684
2017-04-03T05:00:07.848Z,88.510
2017-04-03T05:03:03.721Z,86.525
2017-04-03T05:05:56.001Z,87.278
2017-04-03T05:08:50.097Z,87.455
2017-04-03T05:11:44.071Z,86.714
2017-04-03T05:14:39.867Z,87.473
2017-04-03T05:17:32.311Z,86.035
2017-04-03T05:20:26.496Z,86.581
2017-04-03T05:23:22.455Z,86.081
2017-04-03T05:26:14.862Z,86.052
2017-04-03T05:29:09.117Z,85.378
2017-04-03T05:32:03.347Z,85.124
2017-04-03T05:34:57.513Z,84.589
2017-04-03T05:37:51.631Z,84.777
2017-04-03T05:40:45.761Z,84.545
2017-04-03T05:43:40.052Z,84.166
2017-04-03T05:46:34.254Z,82.959
2017-04-03T05:49:30.205Z,82.537
2017-04-03T05:52:22.706Z,82.269
2017-04-03T05:55:17.057Z,81.740
2017-04-03T05:58:11.234Z,81.264
2017-04-03T06:01:05.338Z,81.309
2017-04-03T06:03:59.586Z,81.320
2017-04-03T06:06:53.777Z,81.277
2017-04-03T06:09:47.949Z,80.515
2017-04-03T06:12:43.793Z,80.428
2017-04-03T06:15:36.243Z,80.244
2017-04-03T06:18:30.458Z,79.678
2017-04-03T06:21:24.643Z,78.774
2017-04-03T06:24:18.855Z,77.981
2017-04-03T06:30:07.268Z,79.003
2017-04-03T06:33:01.406Z,80.070
2017-04-03T06:35:55.557Z,80.465
2017-04-03T06:38:49.782Z,80.698
2017-04-03T06:41:43.906Z,80.968
2017-04-03T06:44:38.081Z,80.849
2017-04-03T06:47:32.028Z,80.640
2017-04-03T06:50:26.241Z,80.955
2017-04-03T06:53:20.373Z,80.811
2017-04-03T06:56:14.644Z,79.137
2017-04-03T06:59:08.743Z,78.837
2017-04-03T07:02:02.729Z,79.135
2017-04-03T07:04:57.016Z,79.263
2017-04-03T07:07:51.166Z,78.685
2017-04-03T07:10:47.061Z,77.620
2017-04-03T07:13:39.583Z,78.874
2017-04-03T07:16:33.750Z,77.122
2017-04-03T07:19:29.523Z,76.332
2017-04-03T07:22:21.922Z,76.692
2017-04-03T07:25:16.018Z,75.825
2017-04-03T07:28:10.122Z,75.489
2017-04-03T07:31:04.281Z,75.063
2017-04-03T07:33:58.410Z,73.846
2017-04-03T07:36:52.531Z,73.965
2017-04-03T07:39:46.686Z,73.247
2017-04-03T07:42:40.859Z,73.729
2017-04-03T07:45:34.969Z,73.550
2017-04-03T07:48:29.019Z,73.296
2017-04-03T07:51:23.180Z,72.141
2017-04-03T07:54:17.304Z,72.686
2017-04-03T07:57:11.437Z,72.098
2017-04-03T08:00:05.686Z,71.368
2017-04-03T08:02:59.828Z,71.602
2017-04-03T08:05:53.980Z,71.041
2017-04-03T08:08:48.254Z,70.142
2017-04-03T08:11:42.620Z,69.305
2017-04-03T08:14:36.818Z,68.366
2017-04-03T08:17:31.074Z,69.819
2017-04-03T08:20:25.134Z,69.366
2017-04-03T08:23:19.284Z,68.551
2017-04-03T08:26:13.501Z,70.110
2017-04-03T08:29:09.488Z,69.243
2017-04-03T08:32:03.557Z,68.870
2017-04-03T08:34:56.257Z,68.475
2017-04-03T08:37:50.510Z,69.371
2017-04-03T08:40:46.410Z,68.341
2017-04-03T08:43:38.977Z,68.978
2017-04-03T08:46:33.190Z,68.919
2017-04-03T08:49:27.308Z,69.420
2017-04-03T08:52:21.411Z,70.112
2017-04-03T08:55:15.607Z,68.241
2017-04-03T08:58:09.877Z,69.726
2017-04-03T09:01:04.060Z,68.228
2017-04-03T09:03:58.160Z,68.924
2017-04-03T09:06:52.261Z,67.650
2017-04-03T09:09:46.344Z,69.132
2017-04-03T09:12:40.462Z,69.225
2017-04-03T09:15:34.607Z,68.629
2017-04-03T09:18:28.745Z,68.240
2017-04-03T09:21:22.905Z,67.098
2017-04-03T09:24:17.104Z,68.299
2017-04-03T09:27:11.271Z,67.375
2017-04-03T09:30:05.361Z,67.324
2017-04-03T09:32:59.458Z,66.541
2017-04-03T09:35:53.589Z,67.878
2017-04-03T09:38:47.948Z,66.078
2017-04-03T09:41:43.834Z,67.541
2017-04-03T09:44:36.366Z,66.209
2017-04-03T09:47:30.558Z,67.010
2017-04-03T09:50:24.677Z,65.662
2017-04-03T09:53:18.786Z,67.623
2017-04-03T09:56:12.923Z,67.487
2017-04-03T09:59:07.094Z,68.103
2017-04-03T10:02:01.341Z,66.333
2017-04-03T10:04:55.346Z,66.744
2017-04-03T10:07:49.622Z,66.195
2017-04-03T10:10:43.850Z,66.381
2017-04-03T10:13:38.057Z,66.604
2017-04-03T10:16:32.176Z,66.686
2017-04-03T10:19:26.425Z,66.921
2017-04-03T10:22:20.679Z,66.352
2017-04-03T10:25:14.875Z,66.436
2017-04-03T10:28:09.164Z,67.338
2017-04-03T10:31:03.232Z,66.165
2017-04-03T10:33:57.292Z,66.478
2017-04-03T10:36:51.475Z,67.304
2017-04-03T10:39:45.603Z,67.105
2017-04-03T10:42:39.786Z,67.088
2017-04-03T10:45:33.978Z,67.736
2017-04-03T10:48:28.154Z,67.599
2017-04-03T10:51:23.987Z,66.960
2017-04-03T10:54:16.237Z,68.370
2017-04-03T10:57:10.271Z,67.602
2017-04-03T11:00:06.091Z,67.107
2017-04-03T11:02:58.514Z,67.571
2017-04-03T11:05:52.622Z,67.270
2017-04-03T11:08:46.792Z,66.584
2017-04-03T11:11:40.799Z,66.568
2017-04-03T11:14:34.808Z,65.881
2017-04-03T11:17:29.047Z,64.665
2017-04-03T11:20:23.643Z,63.488
2017-04-03T11:23:19.618Z,64.179
2017-04-03T11:26:11.860Z,62.766
2017-04-03T11:29:06.074Z,63.214
2017-04-03T11:32:00.218Z,62.805
2017-04-03T11:34:54.405Z,61.111
2017-04-03T11:37:48.678Z,60.669
2017-04-03T11:40:42.965Z,60.953
2017-04-03T11:43:37.290Z,59.291
2017-04-03T11:46:31.665Z,57.730
2017-04-03T11:49:25.983Z,58.668
2017-04-03T11:52:22.014Z,55.539
2017-04-03T11:55:14.807Z,56.610
2017-04-03T11:58:09.339Z,57.194
2017-04-03T12:01:03.882Z,56.694
2017-04-03T12:03:58.370Z,57.830
2017-04-03T12:06:52.706Z,57.550
2017-04-03T12:09:47.182Z,58.694
2017-04-03T12:12:43.374Z,59.432
2017-04-03T12:15:36.028Z,57.723
2017-04-03T12:18:30.532Z,58.856
2017-04-03T12:21:25.040Z,58.826
2017-04-03T12:24:19.445Z,58.895
2017-04-03T12:27:13.983Z,59.147
2017-04-03T12:30:08.277Z,58.807
2017-04-03T12:33:02.626Z,59.328
2017-04-03T12:35:57.007Z,58.301
2017-04-03T12:38:51.285Z,59.087
2017-04-03T12:44:40.091Z,58.647
2017-04-03T12:47:34.512Z,59.120
2017-04-03T12:50:28.914Z,59.209
2017-04-03T12:53:23.265Z,59.737
2017-04-03T12:56:17.670Z,59.480
2017-04-03T12:59:13.944Z,59.504
2017-04-03T13:02:06.524Z,59.386
2017-04-03T13:05:00.958Z,60.000
2017-04-03T13:07:55.348Z,59.841
2017-04-03T13:10:49.757Z,60.272
2017-04-03T13:13:44.198Z,59.802
2017-04-03T13:16:38.562Z,59.794
2017-04-03T13:19:33.382Z,60.098
2017-04-03T13:22:27.745Z,60.820
2017-04-03T13:25:22.247Z,59.515
2017-04-03T13:28:16.499Z,60.758
2017-04-03T13:31:10.863Z,60.071
2017-04-03T13:34:05.189Z,59.082
2017-04-03T13:36:59.613Z,59.284
2017-04-03T13:39:53.970Z,59.422
2017-04-03T13:42:48.310Z,59.591
2017-04-03T13:45:42.711Z,59.869
2017-04-03T13:48:37.086Z,60.288
2017-04-03T13:51:31.514Z,59.537
2017-04-03T13:54:25.913Z,60.197
2017-04-03T13:57:20.350Z,59.917
2017-04-03T14:00:16.520Z,60.359
2017-04-03T14:03:09.521Z,61.029
2017-04-03T14:06:03.874Z,61.143
2017-04-03T14:08:58.238Z,60.555
2017-04-03T14:11:52.556Z,60.513
2017-04-03T14:14:46.994Z,60.472
2017-04-03T14:17:41.308Z,60.164
2017-04-03T14:20:35.683Z,61.000
2017-04-03T14:23:30.077Z,60.577
2017-04-03T14:26:24.318Z,60.012
2017-04-03T14:29:18.705Z,61.318
2017-04-03T14:32:13.026Z,59.570
2017-04-03T14:35:07.354Z,60.378
2017-04-03T14:38:01.635Z,59.288
2017-04-03T14:40:56.301Z,59.024
2017-04-03T14:43:50.763Z,59.930
2017-04-03T14:46:45.046Z,59.918
2017-04-03T14:49:39.393Z,59.873
2017-04-03T14:52:33.601Z,59.915
2017-04-03T14:55:28.159Z,60.141
2017-04-03T14:58:22.280Z,61.075
2017-04-03T15:01:16.525Z,59.774
2017-04-03T15:04:10.449Z,60.296
2017-04-03T15:07:04.512Z,59.464
2017-04-03T15:09:58.627Z,60.302
2017-04-03T15:12:52.896Z,60.350
2017-04-03T15:15:47.036Z,60.932
2017-04-03T15:18:41.102Z,61.125
2017-04-03T15:21:35.084Z,62.975
2017-04-03T15:24:29.074Z,62.019
2017-04-03T15:27:23.140Z,62.626
2017-04-03T15:30:17.236Z,62.939
2017-04-03T15:33:11.269Z,61.789
2017-04-03T15:36:05.247Z,62.409
2017-04-03T15:38:59.262Z,62.332
2017-04-03T15:41:53.174Z,62.729
2017-04-03T15:44:47.174Z,62.667
2017-04-03T15:47:41.945Z,62.685
2017-04-03T15:50:35.119Z,63.791
2017-04-03T15:53:29.104Z,62.599
2017-04-03T15:56:23.164Z,63.292
2017-04-03T15:59:17.131Z,62.251
2017-04-03T16:02:11.359Z,62.775
2017-04-03T16:05:05.425Z,62.703
2017-04-03T16:07:59.355Z,63.373
2017-04-03T16:10:53.291Z,64.560
2017-04-03T16:13:47.278Z,63.609
2017-04-03T16:16:41.195Z,64.359
2017-04-03T16:19:35.189Z,63.881
2017-04-03T16:22:29.136Z,63.823
2017-04-03T16:25:23.055Z,65.293
2017-04-03T16:28:18.735Z,64.823
2017-04-03T16:31:11.023Z,65.422
2017-04-03T16:34:05.039Z,65.007
2017-04-03T16:36:59.027Z,66.409
2017-04-03T16:39:52.972Z,65.051
2017-04-03T16:42:46.974Z,65.922
2017-04-03T16:45:42.783Z,66.581
2017-04-03T16:48:35.281Z,67.234
2017-04-03T16:51:29.629Z,67.124
2017-04-03T16:54:23.776Z,66.693
2017-04-03T16:57:17.817Z,67.981
2017-04-03T17:00:11.937Z,67.944
2017-04-03T17:03:05.987Z,67.836
2017-04-03T17:06:00.094Z,68.434
2017-04-03T17:08:54.213Z,68.785
2017-04-03T17:11:48.415Z,68.378
2017-04-03T17:14:42.412Z,68.472
2017-04-03T17:17:36.478Z,68.940
2017-04-03T17:20:30.605Z,68.913
2017-04-03T17:23:24.640Z,67.326
2017-04-03T17:26:18.737Z,68.830
2017-04-03T17:29:12.801Z,69.541
2017-04-03T17:32:06.857Z,70.232
2017-04-03T17:35:00.895Z,70.264
2017-04-03T17:37:56.499Z,69.871
2017-04-03T17:40:50.596Z,70.525
2017-04-03T17:43:42.860Z,70.408
2017-04-03T17:46:37.044Z,70.240
2017-04-03T17:49:31.023Z,71.496
2017-04-03T17:52:26.832Z,71.292
2017-04-03T17:55:19.087Z,69.983
2017-04-03T17:58:13.203Z,71.494
2017-04-03T18:01:07.485Z,71.641
2017-04-03T18:04:01.439Z,71.871
2017-04-03T18:06:55.521Z,71.845
2017-04-03T18:09:49.655Z,71.458
2017-04-03T18:12:45.462Z,72.035
2017-04-03T18:15:39.552Z,71.000
2017-04-03T18:18:33.601Z,71.201
2017-04-03T18:21:27.616Z,72.334
2017-04-03T18:24:19.926Z,71.477
2017-04-03T18:27:13.944Z,72.693
2017-04-03T18:30:08.006Z,72.254
2017-04-03T18:33:01.985Z,72.873
2017-04-03T18:35:55.978Z,72.852
2017-04-03T18:38:50.040Z,73.003
2017-04-03T18:41:45.732Z,72.445
2017-04-03T18:44:38.061Z,72.940
2017-04-03T18:47:32.033Z,72.766
2017-04-03T18:50:26.015Z,73.779
2017-04-03T18:53:20.110Z,73.672
2017-04-03T18:56:14.070Z,73.006
2017-04-03T18:59:08.098Z,72.616
2017-04-03T19:02:02.082Z,73.161
2017-04-03T19:04:57.844Z,73.321
2017-04-03T19:07:51.785Z,73.487
2017-04-03T19:10:44.088Z,73.383
2017-04-03T19:13:38.042Z,73.041
2017-04-03T19:16:31.937Z,73.444
2017-04-03T19:19:25.876Z,73.339
2017-04-03T19:22:19.777Z,73.680
2017-04-03T19:25:15.526Z,74.065
2017-04-03T19:28:07.761Z,74.041
2017-04-03T19:31:01.744Z,73.943
2017-04-03T19:33:55.700Z,74.259
2017-04-03T19:36:49.657Z,74.044
2017-04-03T19:39:43.650Z,74.382
2017-04-03T19:42:37.665Z,74.321
2017-04-03T19:45:31.606Z,74.235
2017-04-03T19:48:25.449Z,73.530
2017-04-03T19:51:19.450Z,74.264
2017-04-03T19:54:13.442Z,73.978
2017-04-03T19:57:07.436Z,74.507
2017-04-03T20:00:01.333Z,72.085
2017-04-03T20:02:55.422Z,72.477
2017-04-03T20:05:49.301Z,73.756
2017-04-03T20:08:44.802Z,73.388
2017-04-03T20:11:37.013Z,74.683
2017-04-03T20:14:30.932Z,71.661
2017-04-03T20:17:24.838Z,75.042
2017-04-03T20:20:18.795Z,75.207
2017-04-03T20:23:12.755Z,74.737
2017-04-03T20:26:06.715Z,74.133
2017-04-03T20:29:00.666Z,75.101
2017-04-03T20:31:54.598Z,74.937
2017-04-03T20:34:48.590Z,75.226
2017-04-03T20:37:42.508Z,75.645
2017-04-03T20:40:36.458Z,75.656
2017-04-03T20:43:30.306Z,75.375
2017-04-03T20:46:24.224Z,75.154
2017-04-03T20:49:18.086Z,75.304
2017-04-03T20:52:11.916Z,75.804
2017-04-03T20:55:07.502Z,76.349
2017-04-03T20:57:59.657Z,77.181
2017-04-03T21:00:53.522Z,76.419
2017-04-03T21:03:47.262Z,78.043
2017-04-03T21:06:41.138Z,78.790
2017-04-03T21:09:35.111Z,78.377
2017-04-03T21:12:28.966Z,78.983
